Time;durP1;ratioP1;P1;durP2;ratioP2;P2;SDS_P1;SDS_P2;PMS_P1;PMS_P2;Temp;Humidity;BMP_temperature;BMP_pressure;BME280_temperature;BME280_humidity;BME280_pressure;Samples;Min_cycle;Max_cycle;Signal;HPM_P1;HPM_P2
2021/12/17 00:05:01;;;;;;;18.83;9.30;;;4.40;99.90;;;;;;5035494;28;20033;-80
2021/12/17 00:07:30;;;;;;;18.63;9.70;;;4.40;99.90;;;;;;5034654;28;20083;-81
2021/12/17 00:09:57;;;;;;;16.98;8.20;;;4.40;99.90;;;;;;5017385;28;20056;-81
2021/12/17 00:12:27;;;;;;;16.08;8.73;;;4.40;99.90;;;;;;5034397;28;20538;-81
2021/12/17 00:14:52;;;;;;;20.98;9.80;;;4.40;99.90;;;;;;5016937;28;20468;-81
2021/12/17 00:17:24;;;;;;;18.60;9.55;;;4.40;99.90;;;;;;5016555;28;20083;-80
2021/12/17 04:44:20;;;;;;;16.20;9.52;;;4.50;99.90;;;;;;5022923;28;20045;-81
2021/12/17 04:57:30;;;;;;;16.02;8.82;;;4.50;99.90;;;;;;5033819;28;20049;-81
2021/12/17 05:00:00;;;;;;;17.98;9.80;;;4.50;99.90;;;;;;5016578;28;20064;-81
2021/12/17 05:02:27;;;;;;;15.93;9.18;;;4.50;99.90;;;;;;5033470;28;20460;-80
2021/12/17 05:04:54;;;;;;;16.55;9.55;;;4.50;99.90;;;;;;5033715;28;20040;-81
2021/12/17 05:07:22;;;;;;;17.65;10.77;;;4.50;99.90;;;;;;5015908;28;20041;-80
2021/12/17 05:10:20;;;;;;;16.98;9.27;;;4.50;99.90;;;;;;5016595;28;20034;-80
2021/12/17 05:18:26;;;;;;;14.25;8.85;;;4.50;99.90;;;;;;5030701;28;20505;-79
2021/12/17 05:21:06;;;;;;;18.38;10.60;;;4.50;99.90;;;;;;5012970;28;20041;-82
2021/12/17 05:23:39;;;;;;;18.23;10.45;;;4.40;99.90;;;;;;5029936;28;20037;-81
2021/12/17 05:26:08;;;;;;;17.83;10.18;;;4.40;99.90;;;;;;5033033;28;20087;-77
2021/12/17 05:28:34;;;;;;;15.30;9.98;;;4.40;99.90;;;;;;4995847;28;20041;-81
2021/12/17 05:31:00;;;;;;;15.07;9.30;;;4.40;99.90;;;;;;5013320;28;20149;-81
2021/12/17 05:33:26;;;;;;;15.25;9.05;;;4.40;99.90;;;;;;5013553;28;20030;-80
2021/12/17 05:35:53;;;;;;;16.67;9.95;;;4.50;99.90;;;;;;5013701;28;20036;-81
2021/12/17 05:38:23;;;;;;;16.33;9.18;;;4.40;99.90;;;;;;4995852;28;20041;-80
2021/12/17 05:40:50;;;;;;;15.07;9.27;;;4.40;99.90;;;;;;4995636;28;20469;-83
2021/12/17 05:43:16;;;;;;;15.10;8.75;;;4.40;99.90;;;;;;4992085;28;20133;-80
2021/12/17 05:48:21;;;;;;;15.20;9.00;;;4.50;99.90;;;;;;5011960;28;20121;-82
2021/12/17 05:50:48;;;;;;;14.80;9.10;;;4.40;99.90;;;;;;4993799;28;20041;-80
2021/12/17 05:53:15;;;;;;;16.55;9.57;;;4.50;99.90;;;;;;5011266;28;20117;-80
2021/12/17 05:55:41;;;;;;;14.60;8.38;;;4.50;99.90;;;;;;5011799;28;20038;-81
2021/12/17 05:58:08;;;;;;;14.55;8.63;;;4.40;99.90;;;;;;4993679;28;20045;-80
2021/12/17 06:00:35;;;;;;;13.95;8.48;;;4.50;99.90;;;;;;4996056;28;20033;-81
2021/12/17 06:03:02;;;;;;;14.65;8.50;;;4.40;99.90;;;;;;5016682;28;20125;-79
2021/12/17 06:05:28;;;;;;;12.77;8.07;;;4.50;99.90;;;;;;4999466;28;20037;-82
2021/12/17 06:07:55;;;;;;;15.50;8.27;;;4.50;99.90;;;;;;5016580;28;20491;-81
2021/12/17 06:10:21;;;;;;;13.60;7.55;;;4.50;99.90;;;;;;5016635;28;20092;-82
2021/12/17 06:12:48;;;;;;;13.27;7.95;;;4.50;99.90;;;;;;5016613;28;20498;-81
2021/12/17 06:15:17;;;;;;;12.50;7.53;;;4.50;99.90;;;;;;4999232;28;20128;-82
2021/12/17 06:17:43;;;;;;;12.35;7.22;;;4.40;99.90;;;;;;4999345;28;20040;-80
2021/12/17 06:20:11;;;;;;;13.70;8.38;;;4.40;99.90;;;;;;4998743;28;20038;-81
2021/12/17 06:22:37;;;;;;;13.55;7.72;;;4.50;99.90;;;;;;4998863;28;20042;-81
2021/12/17 06:25:04;;;;;;;12.18;7.43;;;4.50;99.90;;;;;;4999056;28;20465;-82
2021/12/17 06:27:31;;;;;;;10.35;6.13;;;4.50;99.90;;;;;;5016446;28;20045;-81
2021/12/17 06:29:57;;;;;;;10.73;6.82;;;4.50;99.90;;;;;;4998545;28;20041;-80
2021/12/17 06:32:24;;;;;;;11.93;8.10;;;4.50;99.90;;;;;;4998706;28;20522;-81
2021/12/17 06:34:51;;;;;;;104.65;61.30;;;4.50;99.90;;;;;;5016507;28;20069;-81
2021/12/17 06:37:17;;;;;;;82.85;49.10;;;4.50;99.90;;;;;;4998822;28;20338;-81
2021/12/17 06:39:44;;;;;;;52.70;31.35;;;4.60;99.90;;;;;;4998753;28;20041;-82
2021/12/17 06:42:11;;;;;;;30.23;18.30;;;4.60;99.90;;;;;;5011235;28;20050;-81
2021/12/17 06:44:42;;;;;;;18.83;11.93;;;4.60;99.90;;;;;;4979072;28;20121;-85
2021/12/17 06:58:12;;;;;;;11.00;6.63;;;4.60;99.90;;;;;;4996411;28;20044;-80
2021/12/17 07:00:33;;;;;;;9.73;6.15;;;4.60;99.90;;;;;;4996073;28;20034;-82
2021/12/17 07:11:01;;;;;;;10.20;6.30;;;4.60;99.90;;;;;;4995619;28;20177;-78
2021/12/17 07:30:20;;;;;;;8.05;5.40;;;4.60;99.90;;;;;;4994227;28;20037;-79
2021/12/17 07:34:43;;;;;;;8.35;5.28;;;4.60;99.90;;;;;;4991581;28;20045;-79
2021/12/17 07:39:35;;;;;;;7.55;4.95;;;4.60;99.90;;;;;;4991492;28;20027;-80
2021/12/17 07:42:02;;;;;;;7.93;5.05;;;4.70;99.90;;;;;;4982884;28;20136;-80
2021/12/17 07:44:28;;;;;;;15.45;9.27;;;4.70;99.90;;;;;;5012958;28;20034;-79
2021/12/17 07:46:54;;;;;;;12.88;8.00;;;4.70;99.90;;;;;;4996713;28;20041;-79
2021/12/17 07:49:20;;;;;;;11.80;6.38;;;4.80;99.90;;;;;;5015015;28;20503;-79
2021/12/17 07:51:46;;;;;;;11.80;6.60;;;4.80;99.90;;;;;;4997170;28;20045;-79
2021/12/17 07:54:12;;;;;;;9.90;6.18;;;4.90;99.90;;;;;;4997136;28;20033;-79
2021/12/17 07:56:38;;;;;;;9.90;6.20;;;4.90;99.90;;;;;;5015067;28;20046;-79
2021/12/17 07:59:07;;;;;;;10.35;6.03;;;4.90;99.90;;;;;;5014836;28;20034;-79
2021/12/17 08:01:35;;;;;;;8.00;5.07;;;4.90;99.90;;;;;;4996990;28;20504;-79
2021/12/17 08:04:00;;;;;;;7.50;4.80;;;4.90;99.90;;;;;;5014948;28;20045;-79
2021/12/17 08:06:26;;;;;;;12.80;8.15;;;4.90;99.90;;;;;;5013408;28;20037;-79
2021/12/17 08:08:52;;;;;;;13.77;8.10;;;4.90;99.90;;;;;;5014227;28;20038;-79
2021/12/17 08:11:18;;;;;;;11.85;7.50;;;4.90;99.90;;;;;;4996794;28;20153;-78
2021/12/17 08:13:46;;;;;;;17.50;10.18;;;4.90;99.90;;;;;;5014597;28;20103;-79
2021/12/17 08:26:57;;;;;;;11.88;6.25;;;4.90;99.90;;;;;;5014574;28;20100;-78
2021/12/17 08:31:58;;;;;;;8.48;5.30;;;4.90;99.90;;;;;;5014508;28;20049;-78
2021/12/17 08:34:23;;;;;;;8.60;5.15;;;4.90;99.90;;;;;;4996649;28;20088;-79
2021/12/17 08:36:49;;;;;;;7.72;5.00;;;4.90;99.90;;;;;;4997050;28;20034;-79
2021/12/17 08:39:15;;;;;;;9.82;5.50;;;4.90;99.90;;;;;;5012897;28;20384;-79
2021/12/17 08:41:41;;;;;;;9.10;5.30;;;4.80;99.90;;;;;;4996546;28;20115;-79
2021/12/17 08:44:14;;;;;;;8.88;4.45;;;4.70;99.90;;;;;;4997165;28;20034;-79
2021/12/17 08:46:42;;;;;;;6.10;4.00;;;4.70;99.90;;;;;;4996744;28;20030;-79
2021/12/17 08:49:16;;;;;;;6.25;3.72;;;4.60;99.90;;;;;;5014899;28;20042;-78
2021/12/17 08:51:43;;;;;;;8.73;5.00;;;4.60;99.90;;;;;;4996766;28;20084;-79
2021/12/17 08:54:10;;;;;;;21.40;12.07;;;4.40;99.90;;;;;;5012805;28;20044;-79
2021/12/17 08:56:42;;;;;;;12.82;8.32;;;4.30;99.90;;;;;;5013657;28;20091;-79
2021/12/17 08:59:09;;;;;;;9.93;5.30;;;4.20;99.90;;;;;;4996832;28;20034;-78
2021/12/17 09:01:35;;;;;;;6.80;4.30;;;4.20;99.90;;;;;;4996823;28;20125;-79
2021/12/17 09:04:01;;;;;;;5.22;3.67;;;4.10;99.90;;;;;;5013736;28;20185;-81
2021/12/17 09:06:28;;;;;;;5.43;3.20;;;4.00;99.90;;;;;;5014119;28;20091;-78
2021/12/17 09:08:57;;;;;;;6.53;3.67;;;4.00;99.90;;;;;;4996466;28;20364;-78
2021/12/17 09:11:26;;;;;;;7.28;3.22;;;4.00;99.90;;;;;;4996298;28;20484;-78
2021/12/17 09:13:53;;;;;;;6.40;3.63;;;4.00;99.90;;;;;;5014079;28;20052;-78
2021/12/17 09:16:22;;;;;;;6.47;3.53;;;4.00;99.90;;;;;;5014347;28;20072;-78
2021/12/17 09:18:53;;;;;;;5.82;3.50;;;4.00;99.90;;;;;;4996538;28;20037;-79
2021/12/17 09:21:19;;;;;;;6.25;3.92;;;4.00;99.90;;;;;;4996445;28;20066;-81
2021/12/17 09:23:46;;;;;;;12.30;6.57;;;4.10;99.90;;;;;;4995973;28;20045;-78
2021/12/17 09:26:13;;;;;;;10.85;6.07;;;4.10;99.90;;;;;;5013597;28;20373;-78
2021/12/17 09:28:39;;;;;;;11.30;5.93;;;4.10;99.90;;;;;;5014405;28;20038;-78
2021/12/17 09:31:11;;;;;;;8.57;4.85;;;4.10;99.90;;;;;;5014110;28;20036;-78
2021/12/17 09:33:37;;;;;;;9.93;5.10;;;4.10;99.90;;;;;;4997322;28;20038;-78
2021/12/17 09:36:04;;;;;;;8.32;4.80;;;4.10;99.90;;;;;;4999838;28;20491;-79
2021/12/17 09:38:30;;;;;;;8.35;4.68;;;4.10;99.90;;;;;;5017497;28;20117;-79
2021/12/17 09:40:56;;;;;;;7.78;4.75;;;4.20;99.90;;;;;;5000128;28;20037;-80
2021/12/17 09:43:22;;;;;;;7.90;4.60;;;4.30;99.90;;;;;;5000169;28;20408;-79
2021/12/17 09:45:48;;;;;;;11.55;5.72;;;4.30;99.90;;;;;;4999698;28;20045;-78
2021/12/17 09:48:14;;;;;;;9.05;5.43;;;4.40;99.90;;;;;;4999810;28;20069;-78
2021/12/17 09:50:40;;;;;;;8.77;5.30;;;4.40;99.90;;;;;;5017249;28;20030;-79
2021/12/17 09:53:06;;;;;;;8.73;5.78;;;4.50;99.90;;;;;;5016765;28;20197;-78
2021/12/17 09:55:32;;;;;;;9.05;5.47;;;4.60;99.90;;;;;;4999650;28;20045;-78
2021/12/17 09:57:58;;;;;;;8.15;4.80;;;4.60;99.90;;;;;;4999651;28;20504;-79
2021/12/17 10:00:26;;;;;;;8.68;5.10;;;4.70;99.90;;;;;;5017120;28;20026;-79
2021/12/17 10:02:53;;;;;;;7.60;4.75;;;4.80;99.90;;;;;;4999443;28;20034;-78
2021/12/17 10:05:26;;;;;;;7.03;4.70;;;4.80;99.90;;;;;;5016820;28;20044;-79
2021/12/17 10:08:05;;;;;;;7.75;4.40;;;4.80;99.90;;;;;;4999044;28;20030;-79
2021/12/17 10:10:41;;;;;;;7.35;4.93;;;4.90;99.90;;;;;;4999343;28;20128;-79
2021/12/17 10:13:15;;;;;;;7.40;4.78;;;4.90;99.90;;;;;;4999725;28;20041;-79
2021/12/17 10:15:44;;;;;;;8.43;5.28;;;4.90;99.90;;;;;;4999124;28;20030;-80
2021/12/17 10:18:10;;;;;;;8.75;5.57;;;4.90;99.90;;;;;;5016916;28;20034;-80
2021/12/17 10:20:58;;;;;;;7.25;5.22;;;4.90;99.90;;;;;;4999142;28;20473;-79
2021/12/17 10:23:25;;;;;;;8.68;4.78;;;5.00;99.90;;;;;;5016648;28;20026;-78
2021/12/17 10:25:51;;;;;;;8.68;5.13;;;5.00;99.90;;;;;;4998956;28;20392;-79
2021/12/17 10:28:17;;;;;;;10.63;5.70;;;5.00;99.90;;;;;;5016444;28;20041;-79
2021/12/17 10:30:47;;;;;;;9.18;5.93;;;5.00;99.90;;;;;;4998948;28;20030;-80
2021/12/17 10:33:18;;;;;;;9.48;6.20;;;5.00;99.90;;;;;;4999098;28;20034;-79
2021/12/17 10:35:47;;;;;;;8.30;5.55;;;5.00;99.90;;;;;;5016581;28;20030;-79
2021/12/17 10:38:16;;;;;;;9.32;5.38;;;5.00;99.90;;;;;;4998789;28;20124;-79
2021/12/17 10:40:55;;;;;;;9.95;6.40;;;5.00;99.90;;;;;;5016549;28;20033;-80
2021/12/17 10:43:44;;;;;;;10.23;6.28;;;5.00;99.90;;;;;;4999230;28;20404;-80
2021/12/17 10:46:32;;;;;;;9.85;6.28;;;5.00;99.90;;;;;;5015453;28;20038;-79
2021/12/17 10:51:47;;;;;;;10.05;6.07;;;4.90;99.90;;;;;;5016328;28;20109;-80
2021/12/17 10:54:21;;;;;;;8.73;5.82;;;4.90;99.90;;;;;;4998696;28;20033;-79
2021/12/17 10:56:50;;;;;;;10.23;6.20;;;4.90;99.90;;;;;;4998707;28;20125;-78
2021/12/17 10:59:20;;;;;;;13.35;7.20;;;4.90;99.90;;;;;;4998373;28;20064;-80
2021/12/17 11:02:00;;;;;;;10.73;6.82;;;4.90;99.90;;;;;;5015777;28;20088;-79
2021/12/17 11:04:33;;;;;;;12.53;6.77;;;5.00;99.90;;;;;;5015988;28;20381;-79
2021/12/17 11:07:04;;;;;;;12.82;6.93;;;4.90;99.90;;;;;;5015894;28;20034;-78
2021/12/17 11:09:43;;;;;;;12.07;6.97;;;5.00;99.90;;;;;;4998738;28;20034;-79
2021/12/17 11:12:28;;;;;;;12.27;6.93;;;5.00;99.90;;;;;;4998475;28;20038;-79
2021/12/17 11:15:06;;;;;;;12.65;6.90;;;5.00;99.90;;;;;;5016188;28;20030;-79
2021/12/17 11:17:32;;;;;;;10.75;6.65;;;5.00;99.90;;;;;;4998617;28;20030;-79
2021/12/17 11:20:00;;;;;;;8.95;6.10;;;5.00;99.90;;;;;;5015900;28;20441;-79
2021/12/17 11:22:29;;;;;;;11.65;6.70;;;5.10;99.90;;;;;;5015749;28;20042;-80
2021/12/17 11:24:56;;;;;;;10.27;5.50;;;5.10;99.90;;;;;;5017214;28;20038;-79
2021/12/17 11:27:22;;;;;;;8.98;5.15;;;5.10;99.90;;;;;;5014389;28;20092;-79
2021/12/17 11:29:48;;;;;;;9.65;5.80;;;5.10;99.90;;;;;;4997812;28;20120;-80
2021/12/17 11:32:15;;;;;;;9.70;6.10;;;5.10;99.90;;;;;;4997882;28;20144;-78
2021/12/17 11:34:41;;;;;;;9.40;5.68;;;5.10;99.90;;;;;;4997981;28;20044;-79
2021/12/17 11:37:08;;;;;;;12.38;5.95;;;5.10;99.90;;;;;;5015815;28;20399;-80
2021/12/17 11:39:46;;;;;;;8.70;5.20;;;5.10;99.90;;;;;;5015225;28;20034;-79
2021/12/17 11:42:24;;;;;;;8.75;5.40;;;5.10;99.90;;;;;;4998048;28;20049;-79
2021/12/17 11:45:22;;;;;;;10.00;5.28;;;5.10;99.90;;;;;;5014499;28;20121;-79
2021/12/17 11:47:39;;;;;;;8.00;5.25;;;5.00;99.90;;;;;;5014941;28;20038;-79
2021/12/17 11:50:08;;;;;;;9.77;5.68;;;5.00;99.90;;;;;;4997809;28;20535;-79
2021/12/17 11:52:41;;;;;;;9.48;5.85;;;5.00;99.90;;;;;;4997036;28;20400;-78
2021/12/17 11:55:36;;;;;;;8.77;5.63;;;5.00;99.90;;;;;;4997244;28;20124;-79
2021/12/17 11:58:07;;;;;;;9.00;5.45;;;4.90;99.90;;;;;;5015032;28;20499;-79
2021/12/17 12:00:39;;;;;;;;;;;4.90;99.90;;;;;;4997604;28;20120;-79
2021/12/17 12:03:21;;;;;;;8.18;5.07;;;4.80;99.90;;;;;;4997142;28;20278;-79
2021/12/17 12:05:59;;;;;;;7.35;5.13;;;4.80;99.90;;;;;;4997083;28;20034;-80
2021/12/17 12:08:51;;;;;;;8.73;5.55;;;4.80;99.90;;;;;;5015048;28;20034;-80
2021/12/17 12:11:26;;;;;;;9.95;5.68;;;4.80;99.90;;;;;;4996959;28;20101;-79
2021/12/17 12:13:54;;;;;;;8.75;5.30;;;4.80;99.90;;;;;;5014599;28;20511;-79
2021/12/17 12:16:26;;;;;;;7.95;5.22;;;4.80;99.90;;;;;;5014509;28;20616;-81
2021/12/17 12:18:57;;;;;;;14.40;8.98;;;4.80;99.90;;;;;;4996823;28;20041;-79
2021/12/17 12:21:33;;;;;;;12.25;7.57;;;4.90;99.90;;;;;;5014989;28;20029;-79
2021/12/17 12:24:09;;;;;;;11.50;6.78;;;4.90;99.90;;;;;;4997245;28;20115;-79
2021/12/17 12:26:40;;;;;;;8.85;4.90;;;4.90;99.90;;;;;;5014321;28;20029;-79
2021/12/17 12:29:26;;;;;;;8.13;5.15;;;5.00;99.90;;;;;;4996629;28;20179;-79
2021/12/17 12:32:19;;;;;;;9.55;4.70;;;5.10;99.90;;;;;;4994682;28;20030;-79
2021/12/17 12:34:45;;;;;;;6.65;4.00;;;5.30;99.90;;;;;;4996901;28;20034;-80
2021/12/17 12:37:23;;;;;;;8.00;4.10;;;5.50;99.90;;;;;;5014009;28;20065;-79
2021/12/17 12:39:53;;;;;;;6.15;3.63;;;5.50;99.90;;;;;;4997118;28;20030;-79
2021/12/17 12:42:30;;;;;;;5.40;3.40;;;5.50;99.90;;;;;;4996474;28;20099;-80
2021/12/17 12:44:56;;;;;;;7.15;4.10;;;5.40;99.90;;;;;;4996424;28;20064;-80
2021/12/17 12:47:25;;;;;;;5.45;3.75;;;5.40;99.90;;;;;;5014171;28;20034;-80
2021/12/17 12:50:06;;;;;;;6.47;3.90;;;5.30;99.90;;;;;;5014018;28;20034;-80
2021/12/17 12:52:33;;;;;;;5.85;4.10;;;5.20;99.90;;;;;;5015797;28;20341;-80
2021/12/17 12:55:07;;;;;;;5.50;3.90;;;5.10;99.90;;;;;;4996393;28;20045;-80
2021/12/17 12:57:35;;;;;;;6.47;4.30;;;5.10;99.90;;;;;;4996330;28;20038;-80
2021/12/17 13:00:08;;;;;;;6.18;3.67;;;5.00;99.90;;;;;;5012805;28;20041;-80
2021/12/17 13:02:33;;;;;;;6.78;4.15;;;5.00;99.90;;;;;;5013954;28;20045;-80
2021/12/17 13:05:00;;;;;;;5.72;3.83;;;4.90;99.90;;;;;;5014107;28;20358;-80
2021/12/17 13:07:55;;;;;;;7.03;3.65;;;4.80;99.90;;;;;;4996965;28;20062;-80
2021/12/17 13:10:22;;;;;;;5.47;3.22;;;4.80;99.90;;;;;;5018074;28;20037;-79
2021/12/17 13:13:02;;;;;;;4.88;2.80;;;4.70;99.90;;;;;;5020692;28;20117;-79
2021/12/17 13:24:12;;;;;;;3.50;1.80;;;4.20;99.90;;;;;;5020587;28;20049;-79
2021/12/17 13:26:47;;;;;;;3.05;1.50;;;4.00;99.90;;;;;;5020833;28;20042;-78
2021/12/17 13:29:34;;;;;;;2.78;1.25;;;3.90;99.90;;;;;;5002965;28;20045;-78
2021/12/17 13:32:03;;;;;;;4.43;2.70;;;3.80;99.90;;;;;;5020583;28;20042;-78
2021/12/17 13:34:28;;;;;;;5.05;2.90;;;3.80;99.90;;;;;;5020607;28;20065;-79
2021/12/17 13:37:06;;;;;;;5.40;2.88;;;3.70;99.90;;;;;;5003167;28;20445;-78
2021/12/17 13:39:40;;;;;;;3.83;2.10;;;3.70;99.90;;;;;;5003067;28;20068;-78
2021/12/17 13:42:15;;;;;;;3.13;1.50;;;3.70;99.90;;;;;;5018797;28;20104;-79
2021/12/17 13:44:46;;;;;;;3.00;1.88;;;3.60;99.90;;;;;;5002482;28;20046;-79
2021/12/17 13:47:14;;;;;;;;;;;3.60;99.90;;;;;;5003139;28;20380;-79
2021/12/17 13:49:53;;;;;;;3.35;2.00;;;3.50;99.90;;;;;;5019813;28;19912;-78
2021/12/17 13:52:24;;;;;;;1.98;1.67;;;3.40;99.90;;;;;;5018517;28;20037;-80
2021/12/17 13:54:58;;;;;;;3.67;1.92;;;3.40;99.90;;;;;;5002290;28;20061;-79
2021/12/17 13:57:28;;;;;;;2.72;1.98;;;3.40;99.90;;;;;;5002260;28;20480;-79
2021/12/17 14:00:08;;;;;;;3.38;1.85;;;3.40;99.90;;;;;;5001771;28;20389;-79
2021/12/17 14:02:40;;;;;;;2.92;2.10;;;3.40;99.90;;;;;;5001832;28;20042;-80
2021/12/17 14:05:10;;;;;;;5.03;2.60;;;3.40;99.90;;;;;;5002675;28;20080;-78
2021/12/17 14:07:49;;;;;;;4.18;2.70;;;3.40;99.90;;;;;;5002061;28;20093;-79
2021/12/17 14:10:21;;;;;;;5.95;3.17;;;3.40;99.90;;;;;;5002468;28;20373;-80
2021/12/17 14:12:48;;;;;;;5.68;3.63;;;3.40;99.90;;;;;;5002446;28;20037;-80
2021/12/17 14:15:35;;;;;;;8.52;4.43;;;3.40;99.90;;;;;;5003231;28;20045;-80
2021/12/17 14:18:06;;;;;;;10.32;4.72;;;3.30;99.90;;;;;;5018944;28;20081;-77
2021/12/17 14:20:42;;;;;;;;;;;3.30;99.90;;;;;;4999832;28;20030;-78
2021/12/17 14:23:30;;;;;;;5.97;3.65;;;3.20;99.90;;;;;;5016296;28;20016;-78
2021/12/17 14:26:00;;;;;;;5.18;3.33;;;3.20;99.90;;;;;;4999359;28;20073;-79
2021/12/17 14:28:32;;;;;;;5.65;3.03;;;3.20;99.90;;;;;;4999035;28;20036;-78
2021/12/17 14:31:00;;;;;;;5.50;2.80;;;3.20;99.90;;;;;;5016235;28;20033;-78
2021/12/17 14:33:34;;;;;;;5.40;2.88;;;3.20;99.90;;;;;;5016110;28;20041;-79
2021/12/17 14:36:10;;;;;;;4.15;2.67;;;3.10;99.90;;;;;;4998694;28;20041;-79
2021/12/17 14:38:55;;;;;;;4.88;2.63;;;3.10;99.90;;;;;;4999044;28;20038;-78
2021/12/17 14:41:30;;;;;;;3.55;2.10;;;3.10;99.90;;;;;;4998285;28;20081;-79
2021/12/17 14:44:01;;;;;;;3.03;1.90;;;3.00;99.90;;;;;;4998503;28;20419;-78
2021/12/17 14:46:41;;;;;;;3.40;1.90;;;3.00;99.90;;;;;;5016047;28;20468;-79
2021/12/17 15:02:48;;;;;;;3.50;2.10;;;2.90;99.90;;;;;;5015840;28;20050;-78
2021/12/17 15:05:16;;;;;;;2.63;2.10;;;2.80;99.90;;;;;;4997940;28;20030;-78
2021/12/17 15:07:42;;;;;;;2.60;1.80;;;2.80;99.90;;;;;;5015375;28;20041;-80
2021/12/17 15:10:11;;;;;;;2.53;2.00;;;2.80;99.90;;;;;;4997794;28;20077;-79
2021/12/17 15:12:39;;;;;;;3.03;2.08;;;2.80;99.90;;;;;;5015486;28;20480;-78
2021/12/17 15:15:18;;;;;;;2.22;1.70;;;2.80;99.90;;;;;;4998554;28;20121;-80
2021/12/17 15:17:49;;;;;;;2.88;1.83;;;2.80;99.90;;;;;;4998127;28;20044;-79
2021/12/17 15:20:30;;;;;;;2.75;2.03;;;2.80;99.90;;;;;;4997540;28;20038;-79
2021/12/17 15:22:56;;;;;;;2.47;2.08;;;2.90;99.90;;;;;;5014950;28;20038;-80
2021/12/17 15:25:26;;;;;;;3.10;2.20;;;2.90;99.90;;;;;;4997384;28;20030;-79
2021/12/17 15:27:52;;;;;;;3.88;2.28;;;2.90;99.90;;;;;;4997487;28;20034;-79
2021/12/17 15:30:24;;;;;;;19.98;11.63;;;2.90;99.90;;;;;;5015048;28;20032;-80
2021/12/17 15:32:50;;;;;;;8.85;5.43;;;2.90;99.90;;;;;;5014896;28;20107;-78
2021/12/17 15:35:19;;;;;;;6.45;3.55;;;2.90;99.90;;;;;;5015351;28;20083;-79
2021/12/17 15:37:46;;;;;;;5.35;2.85;;;2.80;99.90;;;;;;5016022;28;20042;-79
2021/12/17 15:40:13;;;;;;;4.07;2.40;;;2.80;99.90;;;;;;4997753;28;20073;-79
2021/12/17 15:42:39;;;;;;;3.28;2.10;;;2.80;99.90;;;;;;5013610;28;20137;-79
2021/12/17 15:45:06;;;;;;;3.88;2.08;;;2.80;99.90;;;;;;5014655;28;20072;-79
2021/12/17 15:47:32;;;;;;;2.95;2.20;;;2.70;99.90;;;;;;5015120;28;20042;-79
2021/12/17 15:49:57;;;;;;;3.15;2.42;;;2.80;99.90;;;;;;4997407;28;20044;-79
2021/12/17 15:52:23;;;;;;;4.43;2.70;;;2.70;99.90;;;;;;4997392;28;20041;-79
2021/12/17 15:54:49;;;;;;;3.50;2.33;;;2.80;99.90;;;;;;5014600;28;20041;-78
2021/12/17 15:57:16;;;;;;;3.47;2.58;;;2.80;99.90;;;;;;5014754;28;20380;-79
2021/12/17 15:59:43;;;;;;;4.93;2.40;;;2.80;99.90;;;;;;4996876;28;20061;-79
2021/12/17 16:02:16;;;;;;;2.72;2.15;;;2.80;99.90;;;;;;5014480;28;20073;-79
2021/12/17 16:04:47;;;;;;;3.58;2.40;;;2.80;99.90;;;;;;4997250;28;20128;-78
2021/12/17 16:07:14;;;;;;;3.70;2.13;;;2.80;99.90;;;;;;4997821;28;20038;-78
2021/12/17 16:23:10;;;;;;;5.15;2.90;;;2.70;99.90;;;;;;5014250;28;20040;-79
2021/12/17 16:25:37;;;;;;;3.97;2.25;;;2.70;99.90;;;;;;5014182;28;20109;-78
2021/12/17 16:28:03;;;;;;;4.05;2.70;;;2.80;99.90;;;;;;5014541;28;20372;-78
2021/12/17 16:30:39;;;;;;;7.18;4.30;;;2.80;99.90;;;;;;4996649;28;20504;-79
2021/12/17 16:33:08;;;;;;;15.65;8.27;;;2.80;99.90;;;;;;5014240;28;20044;-79
2021/12/17 16:35:34;;;;;;;9.55;6.00;;;2.80;99.90;;;;;;5014163;28;20038;-78
2021/12/17 16:37:59;;;;;;;8.65;4.90;;;2.80;99.90;;;;;;4996267;28;20400;-78
2021/12/17 16:40:25;;;;;;;6.50;4.07;;;2.90;99.90;;;;;;5014073;28;20038;-78
2021/12/17 16:42:54;;;;;;;6.50;3.70;;;2.90;99.90;;;;;;5013374;28;20053;-78
2021/12/17 16:45:23;;;;;;;6.43;3.60;;;2.90;99.90;;;;;;5013978;28;20026;-78
2021/12/17 16:47:50;;;;;;;5.47;3.40;;;2.90;99.90;;;;;;4996169;28;20034;-78
2021/12/17 16:50:17;;;;;;;5.78;3.95;;;2.90;99.90;;;;;;4996127;28;20034;-78
2021/12/17 16:52:43;;;;;;;5.57;3.50;;;2.80;99.90;;;;;;5013685;28;20124;-80
2021/12/17 16:55:10;;;;;;;5.60;3.47;;;2.80;99.90;;;;;;4996086;28;20033;-78
2021/12/17 16:57:36;;;;;;;5.13;3.00;;;2.80;99.90;;;;;;4996299;28;20087;-80
2021/12/17 17:00:04;;;;;;;3.90;2.80;;;2.80;99.90;;;;;;5013864;28;20037;-79
2021/12/17 17:02:30;;;;;;;14.43;8.75;;;2.80;99.90;;;;;;4996086;28;20038;-78
2021/12/17 17:04:56;;;;;;;11.05;6.68;;;2.80;99.90;;;;;;4996167;28;20472;-79
2021/12/17 17:07:26;;;;;;;9.20;4.93;;;2.80;99.90;;;;;;5013869;28;20034;-79
2021/12/17 17:09:55;;;;;;;7.18;4.07;;;2.80;99.90;;;;;;4996326;28;20034;-79
2021/12/17 17:12:24;;;;;;;5.72;3.67;;;2.80;99.90;;;;;;4996342;28;20183;-79
2021/12/17 17:14:50;;;;;;;6.47;3.38;;;2.70;99.90;;;;;;4996209;28;20034;-78
2021/12/17 17:17:23;;;;;;;6.53;3.50;;;2.70;99.90;;;;;;4995977;28;20104;-79
2021/12/17 17:19:51;;;;;;;5.65;3.38;;;2.70;99.90;;;;;;5012858;28;20030;-79
2021/12/17 17:22:18;;;;;;;4.75;3.42;;;2.70;99.90;;;;;;4996561;28;20042;-80
2021/12/17 17:24:44;;;;;;;22.55;14.55;;;2.60;99.90;;;;;;5006680;28;20037;-82
2021/12/17 17:27:10;;;;;;;69.07;40.42;;;2.60;99.90;;;;;;5016780;28;20465;-83
2021/12/17 17:29:36;;;;;;;40.45;24.02;;;2.50;99.90;;;;;;4995308;28;20034;-89
2021/12/17 17:32:02;;;;;;;23.90;13.23;;;2.60;99.90;;;;;;4995582;28;20506;-82
2021/12/17 17:34:31;;;;;;;12.40;7.50;;;2.60;99.90;;;;;;5015117;28;20042;-82
2021/12/17 17:36:57;;;;;;;9.43;5.57;;;2.70;99.90;;;;;;5015430;28;20034;-80
2021/12/17 17:39:31;;;;;;;7.32;4.50;;;2.70;99.90;;;;;;5026082;28;20044;-82
2021/12/17 17:41:57;;;;;;;5.65;3.72;;;2.70;99.90;;;;;;4995293;28;20053;-79
2021/12/17 17:44:23;;;;;;;4.97;3.10;;;2.70;99.90;;;;;;5012222;28;20046;-83
2021/12/17 17:46:49;;;;;;;5.00;2.83;;;2.70;99.90;;;;;;4995383;28;20041;-83
2021/12/17 17:49:17;;;;;;;5.75;2.92;;;2.80;99.90;;;;;;4995445;28;20084;-82
2021/12/17 17:51:43;;;;;;;5.47;2.85;;;2.80;99.90;;;;;;4995601;28;20133;-83
2021/12/17 17:54:12;;;;;;;5.63;3.22;;;2.80;99.90;;;;;;5013121;28;20113;-81
2021/12/17 17:56:38;;;;;;;5.30;3.20;;;2.80;99.90;;;;;;4999249;28;20503;-83
2021/12/17 17:59:05;;;;;;;5.47;3.13;;;2.80;99.90;;;;;;5018184;28;20030;-82
2021/12/17 18:01:34;;;;;;;5.13;3.15;;;2.80;99.90;;;;;;4999710;28;20492;-84
2021/12/17 18:04:00;;;;;;;6.45;2.92;;;2.80;99.90;;;;;;5000000;28;20038;-83
2021/12/17 18:06:26;;;;;;;12.85;7.38;;;2.70;99.90;;;;;;5015857;28;20038;-83
2021/12/17 18:08:55;;;;;;;12.98;7.68;;;2.70;99.90;;;;;;5000515;28;20438;-82
2021/12/17 18:11:22;;;;;;;10.07;5.50;;;2.60;99.90;;;;;;5021327;28;20050;-85
2021/12/17 18:13:49;;;;;;;13.65;7.22;;;2.70;99.90;;;;;;5000298;28;20033;-86
2021/12/17 18:16:15;;;;;;;15.40;8.98;;;2.60;99.90;;;;;;5014263;28;20042;-83
2021/12/17 18:18:40;;;;;;;12.52;7.28;;;2.60;99.90;;;;;;5013912;28;20115;-81
2021/12/17 18:21:09;;;;;;;9.02;5.68;;;2.60;99.90;;;;;;4996061;28;20121;-83
2021/12/17 18:23:37;;;;;;;10.13;4.90;;;2.60;99.90;;;;;;4996140;28;20045;-82
2021/12/17 18:26:02;;;;;;;8.02;4.53;;;2.60;99.90;;;;;;5012751;28;20476;-81
2021/12/17 18:28:28;;;;;;;7.65;3.83;;;2.60;99.90;;;;;;5013374;28;20040;-84
2021/12/17 18:30:54;;;;;;;8.43;3.63;;;2.70;99.90;;;;;;4996477;28;20048;-82
2021/12/17 18:33:20;;;;;;;6.55;3.40;;;2.70;99.90;;;;;;4996221;28;20435;-84
2021/12/17 18:35:46;;;;;;;6.55;3.55;;;2.60;99.90;;;;;;5014067;28;20038;-83
2021/12/17 18:38:12;;;;;;;6.22;3.15;;;2.70;99.90;;;;;;5013601;28;20046;-84
2021/12/17 18:40:46;;;;;;;5.53;3.20;;;2.70;99.90;;;;;;4995744;28;20095;-85
2021/12/17 18:45:56;;;;;;;5.60;3.40;;;2.70;99.90;;;;;;5013662;28;20045;-79
2021/12/17 18:48:26;;;;;;;7.13;3.53;;;2.60;99.90;;;;;;4995439;28;20034;-83
2021/12/17 18:50:52;;;;;;;6.93;3.53;;;2.70;99.90;;;;;;5013215;28;20030;-83
2021/12/17 18:53:18;;;;;;;8.50;3.50;;;2.60;99.90;;;;;;4995723;28;20045;-80
2021/12/17 18:55:46;;;;;;;5.60;3.08;;;2.70;99.90;;;;;;5014177;28;20030;-87
2021/12/17 18:58:14;;;;;;;7.70;3.53;;;2.70;99.90;;;;;;5014994;28;20042;-82
2021/12/17 19:00:52;;;;;;;4.90;3.40;;;2.70;99.90;;;;;;5015797;28;20076;-81
2021/12/17 19:03:29;;;;;;;7.50;3.75;;;2.70;99.90;;;;;;5016141;28;20475;-89
2021/12/17 19:06:03;;;;;;;6.25;3.72;;;2.70;99.90;;;;;;5014941;28;20080;-87
2021/12/17 19:08:30;;;;;;;6.57;3.85;;;2.70;99.90;;;;;;5008727;28;20087;-83
2021/12/17 19:10:58;;;;;;;5.32;3.38;;;2.70;99.90;;;;;;5003361;28;20057;-85
2021/12/17 19:13:25;;;;;;;4.95;3.15;;;2.70;99.90;;;;;;4997950;28;20050;-86
2021/12/17 19:15:57;;;;;;;9.77;5.10;;;2.70;99.90;;;;;;4996223;28;20037;-84
2021/12/17 19:24:06;;;;;;;6.47;4.28;;;2.70;99.90;;;;;;5013953;28;20095;-85
2021/12/17 19:26:32;;;;;;;6.72;4.03;;;2.70;99.90;;;;;;5012899;28;20472;-84
2021/12/17 19:28:59;;;;;;;6.28;3.70;;;2.70;99.90;;;;;;5011789;28;20072;-85
2021/12/17 19:31:28;;;;;;;6.20;3.50;;;2.70;99.90;;;;;;4995821;28;20033;-84
2021/12/17 19:33:55;;;;;;;6.88;3.60;;;2.70;99.90;;;;;;4995106;28;20613;-80